Terminal Aerodrome Forecast
Issued by NWS Milwaukee/Sullivan, WI

Home | Current Version | Previous Version | Text Only | Print | Product List | Glossary On
Versions: 1 2 3 4 5 6 7 8 9 10 11 12 13 14 15 16 17 18 19 20 21 22 23 24
000
FTUS43 KMKX 240906 AAA
TAFMKE
TAF AMD
KMKE 240906Z 2409/2512 22009KT P6SM SCT120
     FM241200 21012KT P6SM FEW100 SCT200 WS020/24040KT
     FM241700 21018G28KT P6SM FEW140 SCT250
     FM242300 23013KT P6SM BKN110
     FM250500 29012KT P6SM FEW110 FEW250=

USA.gov is the U.S. government's official web portal to all federal, state and local government web resources and services.